createdAt,value
2017-07-05T00:00:35.090Z,0
2017-07-05T00:01:45.130Z,0
2017-07-05T00:02:55.204Z,0
2017-07-05T00:04:05.549Z,0
2017-07-05T00:05:15.586Z,0
2017-07-05T00:06:25.964Z,0
2017-07-05T00:07:35.995Z,0
2017-07-05T00:08:46.361Z,0
2017-07-05T00:09:56.702Z,0
2017-07-05T00:11:06.754Z,0
2017-07-05T00:12:17.127Z,0
2017-07-05T00:13:27.484Z,0
2017-07-05T00:14:37.531Z,0
2017-07-05T00:15:47.293Z,0
2017-07-05T00:16:57.659Z,0
2017-07-05T00:18:08.025Z,0
2017-07-05T00:19:18.377Z,0
2017-07-05T00:20:28.396Z,0
2017-07-05T00:21:38.803Z,0
2017-07-05T00:22:48.842Z,0
2017-07-05T00:23:58.896Z,0
2017-07-05T00:25:08.932Z,0
2017-07-05T00:26:19.309Z,0
2017-07-05T00:27:29.021Z,0
2017-07-05T00:28:38.421Z,0
2017-07-05T00:29:48.789Z,0
2017-07-05T00:30:59.147Z,0
2017-07-05T00:32:09.200Z,0
2017-07-05T00:33:19.564Z,0
2017-07-05T00:34:29.908Z,0
2017-07-05T00:35:40.258Z,0
2017-07-05T00:36:50.614Z,0
2017-07-05T00:38:00.663Z,0
2017-07-05T00:39:10.713Z,0
2017-07-05T00:40:21.068Z,0
2017-07-05T00:41:30.467Z,0
2017-07-05T00:42:40.826Z,0
2017-07-05T00:43:50.965Z,0
2017-07-05T00:45:01.365Z,0
2017-07-05T00:46:11.712Z,0
2017-07-05T00:47:21.744Z,0
2017-07-05T00:48:31.783Z,0
2017-07-05T00:49:42.133Z,0
2017-07-05T00:50:52.495Z,0
2017-07-05T00:52:02.858Z,0
2017-07-05T00:53:13.189Z,0
2017-07-05T00:54:23.220Z,0
2017-07-05T00:55:32.935Z,0
2017-07-05T00:56:43.024Z,0
2017-07-05T00:57:53.057Z,0
2017-07-05T00:59:03.088Z,0
2017-07-05T01:00:13.444Z,0
2017-07-05T01:01:23.801Z,0
2017-07-05T01:02:34.217Z,0
2017-07-05T01:03:44.249Z,0
2017-07-05T01:04:54.608Z,0
2017-07-05T01:06:04.988Z,0
2017-07-05T01:07:14.700Z,0
2017-07-05T01:08:24.783Z,0
2017-07-05T01:09:34.824Z,0
2017-07-05T01:10:45.075Z,0
2017-07-05T01:11:55.166Z,0
2017-07-05T01:13:05.545Z,0
2017-07-05T01:14:15.250Z,0
2017-07-05T01:15:25.638Z,0
2017-07-05T01:16:35.658Z,0
2017-07-05T01:17:45.708Z,0
2017-07-05T01:18:56.055Z,0
2017-07-05T01:20:06.102Z,0
2017-07-05T01:21:16.495Z,0
2017-07-05T01:22:26.846Z,0
2017-07-05T01:23:37.187Z,0
2017-07-05T01:24:47.210Z,0
2017-07-05T01:25:57.568Z,0
2017-07-05T01:27:07.595Z,0
2017-07-05T01:28:17.303Z,0
2017-07-05T01:29:27.353Z,0
2017-07-05T01:30:37.384Z,0
2017-07-05T01:31:47.427Z,0
2017-07-05T01:32:57.453Z,0
2017-07-05T01:34:07.792Z,0
2017-07-05T01:35:18.152Z,0
2017-07-05T01:36:28.186Z,0
2017-07-05T01:37:38.222Z,0
2017-07-05T01:38:48.299Z,0
2017-07-05T01:39:58.652Z,0
2017-07-05T01:41:09.017Z,0
2017-07-05T01:42:19.050Z,0
2017-07-05T01:43:29.426Z,0
2017-07-05T01:44:39.452Z,0
2017-07-05T01:45:49.813Z,0
2017-07-05T01:47:00.150Z,0
2017-07-05T01:48:10.172Z,0
2017-07-05T01:49:20.208Z,0
2017-07-05T01:50:30.231Z,0
2017-07-05T01:51:40.270Z,0
2017-07-05T01:52:50.312Z,0
2017-07-05T01:54:00.664Z,0
2017-07-05T01:55:10.692Z,0
2017-07-05T01:56:20.413Z,0
2017-07-05T01:57:30.765Z,0
2017-07-05T01:58:40.782Z,0
2017-07-05T01:59:50.875Z,0
2017-07-05T02:01:00.916Z,0
2017-07-05T02:02:10.635Z,0
2017-07-05T02:03:20.666Z,0
2017-07-05T02:04:30.776Z,0
2017-07-05T02:05:41.113Z,0
2017-07-05T02:06:51.457Z,0
2017-07-05T02:08:01.866Z,0
2017-07-05T02:09:12.218Z,0
2017-07-05T02:10:22.237Z,0
2017-07-05T02:11:32.631Z,0
2017-07-05T02:12:43.033Z,0
2017-07-05T02:13:53.115Z,0
2017-07-05T02:15:03.152Z,0
2017-07-05T02:16:13.500Z,0
2017-07-05T02:17:23.532Z,0
2017-07-05T02:18:33.889Z,0
2017-07-05T02:19:44.244Z,0
2017-07-05T02:20:54.586Z,0
2017-07-05T02:22:04.933Z,0
2017-07-05T02:23:15.279Z,0
2017-07-05T02:24:25.626Z,0
2017-07-05T02:25:35.980Z,0
2017-07-05T02:26:46.324Z,0
2017-07-05T02:27:56.349Z,0
2017-07-05T02:29:06.699Z,0
2017-07-05T02:30:16.732Z,0
2017-07-05T02:31:27.131Z,0
2017-07-05T02:32:36.535Z,0
2017-07-05T02:33:46.565Z,0
2017-07-05T02:34:56.916Z,0
2017-07-05T02:36:07.264Z,0
2017-07-05T02:37:17.627Z,0
2017-07-05T02:38:27.977Z,0
2017-07-05T02:39:38.334Z,0
2017-07-05T02:40:48.042Z,0
2017-07-05T02:41:57.788Z,0
2017-07-05T02:43:07.805Z,0
2017-07-05T02:44:17.839Z,0
2017-07-05T02:45:27.861Z,0
2017-07-05T02:46:37.885Z,0
2017-07-05T02:47:47.617Z,0
2017-07-05T02:48:57.967Z,0
2017-07-05T02:50:08.307Z,0
2017-07-05T02:51:18.656Z,0
2017-07-05T02:52:28.678Z,0
2017-07-05T02:53:39.099Z,0
2017-07-05T02:54:49.467Z,0
2017-07-05T02:55:59.831Z,0
2017-07-05T02:57:10.174Z,5
2017-07-05T02:58:20.210Z,5
2017-07-05T02:59:30.556Z,5
2017-07-05T03:00:40.909Z,5
2017-07-05T03:33:03.935Z,35
2017-07-05T03:34:14.287Z,35
2017-07-05T03:35:24.633Z,35
2017-07-05T03:36:34.651Z,35
2017-07-05T03:37:44.997Z,40
2017-07-05T03:38:55.345Z,40
2017-07-05T03:40:05.695Z,40
2017-07-05T03:41:16.034Z,40
2017-07-05T03:42:26.389Z,45
2017-07-05T03:43:36.416Z,45
2017-07-05T03:44:46.764Z,45
2017-07-05T03:45:56.802Z,45
2017-07-05T03:47:06.816Z,50
2017-07-05T03:48:16.858Z,50
2017-07-05T03:49:26.875Z,50
2017-07-05T03:50:36.973Z,55
2017-07-05T03:51:47.013Z,55
2017-07-05T03:52:57.045Z,55
2017-07-05T03:54:06.772Z,55
2017-07-05T03:55:16.803Z,60
2017-07-05T03:56:26.850Z,60
2017-07-05T03:57:37.281Z,60
2017-07-05T03:58:47.639Z,60
2017-07-05T03:59:57.988Z,60
2017-07-05T04:01:08.327Z,60
2017-07-05T04:02:18.049Z,60
2017-07-05T04:03:28.081Z,65
2017-07-05T04:04:38.444Z,65
2017-07-05T04:05:48.796Z,65
2017-07-05T04:06:58.821Z,70
2017-07-05T04:08:08.842Z,70
2017-07-05T04:09:19.245Z,70
2017-07-05T04:10:29.292Z,75
2017-07-05T04:11:39.318Z,75
2017-07-05T04:12:49.672Z,75
2017-07-05T04:14:00.015Z,80
2017-07-05T04:15:10.400Z,80
2017-07-05T04:16:20.740Z,80
2017-07-05T04:17:31.108Z,85
2017-07-05T04:18:40.838Z,85
2017-07-05T04:19:50.879Z,90
2017-07-05T04:21:00.962Z,90
2017-07-05T04:22:11.316Z,95
2017-07-05T04:23:21.388Z,210
2017-07-05T04:24:31.728Z,455
2017-07-05T04:25:41.764Z,500
2017-07-05T04:26:51.841Z,520
2017-07-05T04:28:01.567Z,545
2017-07-05T04:29:11.622Z,525
2017-07-05T04:30:21.637Z,495
2017-07-05T04:31:32.000Z,525
2017-07-05T04:32:42.025Z,570
2017-07-05T04:33:52.396Z,565
2017-07-05T04:35:02.794Z,555
2017-07-05T04:36:12.845Z,565
2017-07-05T04:37:23.195Z,575
2017-07-05T04:38:33.309Z,545
2017-07-05T04:39:43.352Z,545
2017-07-05T04:40:53.713Z,540
2017-07-05T04:42:04.058Z,580
2017-07-05T04:43:14.411Z,545
2017-07-05T04:44:24.507Z,550
2017-07-05T04:45:34.549Z,595
2017-07-05T04:46:44.893Z,550
2017-07-05T04:47:55.249Z,540
2017-07-05T04:49:05.286Z,560
2017-07-05T04:50:15.683Z,575
2017-07-05T04:51:26.055Z,510
2017-07-05T04:52:36.424Z,500
2017-07-05T04:53:46.766Z,545
2017-07-05T04:54:56.784Z,575
2017-07-05T04:56:06.824Z,625
2017-07-05T04:57:17.171Z,620
2017-07-05T04:58:27.204Z,595
2017-07-05T04:59:37.242Z,575
2017-07-05T05:00:47.337Z,585
2017-07-05T05:01:57.408Z,565
2017-07-05T05:03:07.388Z,570
2017-07-05T05:04:17.114Z,575
2017-07-05T05:05:26.835Z,585
2017-07-05T05:06:37.201Z,570
2017-07-05T05:07:47.292Z,580
2017-07-05T05:08:57.644Z,585
2017-07-05T05:10:07.698Z,565
2017-07-05T05:11:18.066Z,555
2017-07-05T05:12:28.091Z,555
2017-07-05T05:13:38.128Z,580
2017-07-05T05:14:48.198Z,560
2017-07-05T05:15:57.947Z,520
2017-07-05T05:17:08.307Z,525
2017-07-05T05:18:18.651Z,545
2017-07-05T05:19:28.420Z,540
2017-07-05T05:20:38.774Z,545
2017-07-05T05:21:48.811Z,550
2017-07-05T05:22:59.164Z,555
2017-07-05T05:24:08.582Z,535
2017-07-05T05:25:18.945Z,520
2017-07-05T05:26:29.316Z,535
2017-07-05T05:27:39.663Z,525
2017-07-05T05:28:50.015Z,540
2017-07-05T05:30:00.107Z,520
2017-07-05T05:31:10.461Z,505
2017-07-05T05:32:20.819Z,490
2017-07-05T05:33:30.857Z,470
2017-07-05T05:34:41.218Z,465
2017-07-05T05:35:51.646Z,490
2017-07-05T05:37:01.672Z,485
2017-07-05T05:38:12.025Z,480
2017-07-05T05:39:22.376Z,495
2017-07-05T05:40:32.735Z,495
2017-07-05T05:41:42.775Z,500
2017-07-05T05:42:52.511Z,500
2017-07-05T05:44:02.887Z,500
2017-07-05T05:45:12.915Z,490
2017-07-05T05:46:23.278Z,475
2017-07-05T05:47:33.304Z,475
2017-07-05T05:48:43.350Z,470
2017-07-05T05:49:53.734Z,460
2017-07-05T05:51:03.770Z,455
2017-07-05T05:52:13.804Z,460
2017-07-05T05:53:23.836Z,475
2017-07-05T05:54:34.184Z,480
2017-07-05T05:55:44.524Z,475
2017-07-05T05:56:54.244Z,465
2017-07-05T05:58:04.586Z,460
2017-07-05T05:59:14.947Z,450
2017-07-05T06:00:24.995Z,440
2017-07-05T06:01:35.355Z,435
2017-07-05T06:02:45.720Z,420
2017-07-05T06:03:56.088Z,415
2017-07-05T06:05:05.807Z,410
2017-07-05T06:06:16.182Z,410
2017-07-05T06:07:26.533Z,405
2017-07-05T06:08:36.886Z,390
2017-07-05T06:09:47.252Z,380
2017-07-05T06:10:57.038Z,375
2017-07-05T06:12:07.090Z,365
2017-07-05T06:13:17.442Z,360
2017-07-05T06:14:27.509Z,355
2017-07-05T06:15:37.227Z,355
2017-07-05T06:16:47.573Z,355
2017-07-05T06:17:57.701Z,355
2017-07-05T06:19:08.058Z,350
2017-07-05T06:20:18.098Z,350
2017-07-05T06:21:28.142Z,350
2017-07-05T06:22:38.236Z,350
2017-07-05T06:23:47.317Z,350
2017-07-05T06:24:57.345Z,345
2017-07-05T06:26:07.381Z,345
2017-07-05T06:27:17.108Z,340
2017-07-05T06:28:27.196Z,335
2017-07-05T06:29:37.573Z,330
2017-07-05T06:30:47.938Z,330
2017-07-05T06:31:57.980Z,330
2017-07-05T06:33:08.337Z,325
2017-07-05T06:34:18.757Z,320
2017-07-05T06:35:29.120Z,320
2017-07-05T06:36:38.518Z,310
2017-07-05T06:37:48.872Z,300
2017-07-05T06:38:58.916Z,290
2017-07-05T06:40:09.279Z,285
2017-07-05T06:41:19.000Z,285
2017-07-05T06:42:29.371Z,285
2017-07-05T06:43:39.427Z,285
2017-07-05T06:44:49.799Z,280
2017-07-05T06:45:59.833Z,275
2017-07-05T06:47:09.871Z,275
2017-07-05T06:48:20.245Z,270
2017-07-05T06:49:30.612Z,265
2017-07-05T06:50:40.658Z,260
2017-07-05T06:51:51.011Z,260
2017-07-05T06:53:01.391Z,255
2017-07-05T06:54:11.744Z,260
2017-07-05T06:55:22.082Z,250
2017-07-05T06:56:32.489Z,250
2017-07-05T06:57:42.861Z,245
2017-07-05T06:58:53.286Z,240
2017-07-05T07:00:03.333Z,240
2017-07-05T07:01:13.373Z,235
2017-07-05T07:02:23.732Z,230
2017-07-05T07:03:34.085Z,225
2017-07-05T07:04:44.675Z,220
2017-07-05T07:05:55.027Z,220
2017-07-05T07:07:05.387Z,215
2017-07-05T07:08:15.741Z,210
2017-07-05T07:09:26.098Z,205
2017-07-05T07:10:36.522Z,200
2017-07-05T07:11:46.245Z,195
2017-07-05T07:12:56.283Z,190
2017-07-05T07:14:06.054Z,190
2017-07-05T07:15:15.781Z,185
2017-07-05T07:16:26.152Z,180
2017-07-05T07:17:36.511Z,170
2017-07-05T07:18:46.878Z,165
2017-07-05T07:19:56.964Z,165
2017-07-05T07:21:07.337Z,165
2017-07-05T07:22:17.376Z,165
2017-07-05T07:23:27.724Z,165
2017-07-05T07:24:38.082Z,165
2017-07-05T07:25:48.172Z,165
2017-07-05T07:26:58.235Z,165
2017-07-05T07:28:08.266Z,170
2017-07-05T07:29:17.991Z,165
2017-07-05T07:30:28.045Z,165
2017-07-05T07:31:38.455Z,165
2017-07-05T07:32:48.812Z,165
2017-07-05T07:33:58.861Z,165
2017-07-05T07:35:09.238Z,170
2017-07-05T07:36:19.600Z,170
2017-07-05T07:37:29.310Z,170
2017-07-05T07:38:39.660Z,170
2017-07-05T07:39:50.029Z,170
2017-07-05T07:41:00.415Z,170
2017-07-05T07:42:10.777Z,170
2017-07-05T07:43:20.876Z,170
2017-07-05T07:44:30.931Z,170
2017-07-05T07:45:41.281Z,170
2017-07-05T07:46:51.659Z,170
2017-07-05T07:48:02.030Z,170
2017-07-05T07:49:12.450Z,170
2017-07-05T07:50:22.484Z,170
2017-07-05T07:51:32.211Z,175
2017-07-05T07:52:41.943Z,170
2017-07-05T07:53:52.314Z,170
2017-07-05T07:55:02.691Z,170
2017-07-05T07:56:12.727Z,170
2017-07-05T07:57:23.093Z,170
2017-07-05T07:58:33.451Z,170
2017-07-05T07:59:43.799Z,170
2017-07-05T08:00:53.890Z,170
2017-07-05T08:02:04.250Z,170
2017-07-05T08:03:14.319Z,175
2017-07-05T08:04:24.661Z,175
2017-07-05T08:05:35.038Z,175
2017-07-05T08:06:45.078Z,175
2017-07-05T08:07:55.433Z,175
2017-07-05T08:09:05.793Z,175
2017-07-05T08:10:15.846Z,175
2017-07-05T08:11:26.200Z,175
2017-07-05T08:12:35.977Z,175
2017-07-05T08:13:46.025Z,175
2017-07-05T08:14:56.383Z,175
2017-07-05T08:16:06.743Z,175
2017-07-05T08:17:17.099Z,175
2017-07-05T08:18:27.555Z,175
2017-07-05T08:19:37.607Z,175
2017-07-05T08:20:47.986Z,180
2017-07-05T08:21:58.334Z,180
2017-07-05T08:23:08.692Z,180
2017-07-05T08:24:19.090Z,180
2017-07-05T08:25:29.159Z,180
2017-07-05T08:26:39.551Z,180
2017-07-05T08:27:49.906Z,180
2017-07-05T08:29:00.331Z,180
2017-07-05T08:30:10.694Z,180
2017-07-05T08:31:21.057Z,180
2017-07-05T08:32:30.776Z,180
2017-07-05T08:33:41.215Z,180
2017-07-05T08:34:51.286Z,180
2017-07-05T08:36:01.672Z,180
2017-07-05T08:37:12.049Z,180
2017-07-05T08:38:22.096Z,180
2017-07-05T08:39:32.455Z,180
2017-07-05T08:40:42.825Z,180
2017-07-05T08:41:53.232Z,180
2017-07-05T08:43:03.289Z,185
2017-07-05T08:44:13.332Z,185
2017-07-05T08:45:23.067Z,185
2017-07-05T08:46:32.789Z,185
2017-07-05T08:47:43.198Z,185
2017-07-05T08:48:53.257Z,185
2017-07-05T08:50:03.603Z,185
2017-07-05T08:51:13.966Z,185
2017-07-05T08:52:24.329Z,185
2017-07-05T08:53:34.734Z,185
2017-07-05T08:54:45.087Z,185
2017-07-05T08:55:55.139Z,185
2017-07-05T08:57:05.202Z,185
2017-07-05T08:58:15.571Z,185
2017-07-05T08:59:25.974Z,185
2017-07-05T09:00:36.330Z,185
2017-07-05T09:01:46.377Z,185
2017-07-05T09:02:56.739Z,190
2017-07-05T09:04:07.099Z,190
2017-07-05T09:05:17.468Z,190
2017-07-05T09:06:27.508Z,190
2017-07-05T09:07:37.557Z,190
2017-07-05T09:08:47.912Z,190
2017-07-05T09:09:57.959Z,190
2017-07-05T09:11:08.376Z,190
2017-07-05T09:12:18.094Z,190
2017-07-05T09:13:28.489Z,195
2017-07-05T09:14:38.892Z,190
2017-07-05T09:15:49.266Z,190
2017-07-05T09:16:59.048Z,190
2017-07-05T09:18:09.395Z,190
2017-07-05T09:19:19.739Z,200
2017-07-05T09:20:29.796Z,195
2017-07-05T09:21:39.838Z,195
2017-07-05T09:22:49.890Z,195
2017-07-05T09:23:59.614Z,195
2017-07-05T09:25:09.967Z,190
2017-07-05T09:26:20.347Z,195
2017-07-05T09:27:30.399Z,195
2017-07-05T09:28:40.861Z,195
2017-07-05T09:29:50.909Z,195
2017-07-05T09:31:00.635Z,205
2017-07-05T09:32:10.994Z,200
2017-07-05T09:33:21.373Z,200
2017-07-05T09:34:31.782Z,205
2017-07-05T09:35:42.157Z,195
2017-07-05T09:36:51.881Z,195
2017-07-05T09:38:01.619Z,195
2017-07-05T09:39:12.000Z,195
2017-07-05T09:40:22.084Z,200
2017-07-05T09:41:32.437Z,200
2017-07-05T09:42:42.464Z,200
2017-07-05T09:43:52.499Z,200
2017-07-05T09:45:02.837Z,200
2017-07-05T09:46:13.237Z,205
2017-07-05T09:47:23.600Z,205
2017-07-05T09:48:33.637Z,205
2017-07-05T09:49:44.011Z,205
2017-07-05T09:50:54.362Z,205
2017-07-05T09:52:04.771Z,205
2017-07-05T09:53:14.811Z,205
2017-07-05T09:54:25.186Z,205
2017-07-05T09:55:35.535Z,205
2017-07-05T09:56:45.896Z,205
2017-07-05T09:57:56.314Z,205
2017-07-05T09:59:06.047Z,205
2017-07-05T10:00:16.096Z,205
2017-07-05T10:01:26.453Z,200
2017-07-05T10:02:36.806Z,210
2017-07-05T10:03:47.222Z,210
2017-07-05T10:04:57.600Z,210
2017-07-05T10:06:07.976Z,210
2017-07-05T10:07:17.716Z,210
2017-07-05T10:08:27.454Z,210
2017-07-05T10:09:37.552Z,210
2017-07-05T10:10:47.915Z,210
2017-07-05T10:11:57.957Z,210
2017-07-05T10:13:08.339Z,210
2017-07-05T10:14:18.711Z,205
2017-07-05T10:15:29.058Z,205
2017-07-05T10:16:38.798Z,220
2017-07-05T10:17:48.850Z,220
2017-07-05T10:18:58.559Z,220
2017-07-05T10:20:07.956Z,220
2017-07-05T10:21:18.036Z,215
2017-07-05T10:22:28.394Z,225
2017-07-05T10:23:38.752Z,230
2017-07-05T10:24:49.045Z,225
2017-07-05T10:25:59.418Z,225
2017-07-05T10:27:09.775Z,225
2017-07-05T10:28:19.831Z,220
2017-07-05T10:29:30.180Z,210
2017-07-05T10:30:39.918Z,225
2017-07-05T10:31:50.291Z,225
2017-07-05T10:33:00.696Z,230
2017-07-05T10:34:11.050Z,230
2017-07-05T10:35:21.103Z,235
2017-07-05T10:36:31.505Z,230
2017-07-05T10:37:41.866Z,235
2017-07-05T10:38:51.966Z,230
2017-07-05T10:40:02.000Z,230
2017-07-05T10:41:12.053Z,225
2017-07-05T10:42:22.114Z,220
2017-07-05T10:43:32.155Z,225
2017-07-05T10:44:42.571Z,230
2017-07-05T10:45:52.616Z,235
2017-07-05T10:47:02.986Z,235
2017-07-05T10:48:13.342Z,235
2017-07-05T10:49:23.718Z,235
2017-07-05T10:50:33.766Z,235
2017-07-05T10:51:44.132Z,235
2017-07-05T10:52:54.485Z,240
2017-07-05T10:54:04.841Z,240
2017-07-05T10:55:15.188Z,235
2017-07-05T10:56:25.601Z,235
2017-07-05T10:57:35.651Z,240
2017-07-05T10:58:45.724Z,245
2017-07-05T10:59:56.091Z,240
2017-07-05T11:01:06.448Z,240
2017-07-05T11:02:16.219Z,245
2017-07-05T11:03:25.936Z,240
2017-07-05T11:04:36.296Z,245
2017-07-05T11:05:46.651Z,245
2017-07-05T11:06:56.707Z,235
2017-07-05T11:08:07.078Z,235
2017-07-05T11:09:17.444Z,235
2017-07-05T11:10:27.907Z,230
2017-07-05T11:11:37.957Z,235
2017-07-05T11:12:47.985Z,230
2017-07-05T11:13:57.716Z,235
2017-07-05T11:15:08.068Z,235
2017-07-05T11:16:18.594Z,240
2017-07-05T11:17:28.956Z,235
2017-07-05T11:18:39.340Z,230
2017-07-05T11:19:49.719Z,240
2017-07-05T11:21:00.086Z,240
2017-07-05T11:22:10.556Z,250
2017-07-05T11:23:20.901Z,245
2017-07-05T11:24:31.254Z,245
2017-07-05T11:25:41.298Z,250
2017-07-05T11:26:51.358Z,250
2017-07-05T11:28:01.092Z,260
2017-07-05T11:29:11.461Z,255
2017-07-05T11:30:21.512Z,255
2017-07-05T11:31:31.882Z,240
2017-07-05T11:32:41.590Z,260
2017-07-05T11:33:51.368Z,260
2017-07-05T11:35:01.750Z,275
2017-07-05T11:36:12.136Z,280
2017-07-05T11:37:21.877Z,285
2017-07-05T11:38:31.309Z,235
2017-07-05T11:39:41.756Z,280
2017-07-05T11:40:51.532Z,160
2017-07-05T11:42:01.265Z,265
2017-07-05T11:43:11.311Z,270
2017-07-05T11:44:21.055Z,265
2017-07-05T11:45:30.823Z,270
2017-07-05T11:46:41.197Z,150
2017-07-05T11:47:51.563Z,235
2017-07-05T11:49:01.936Z,155
2017-07-05T11:50:12.004Z,265
2017-07-05T11:51:21.838Z,155
2017-07-05T11:52:32.199Z,165
2017-07-05T11:53:42.579Z,270
2017-07-05T11:54:52.943Z,270
2017-07-05T11:56:03.308Z,275
2017-07-05T11:57:13.397Z,245
2017-07-05T11:58:23.453Z,260
2017-07-05T11:59:33.844Z,280
2017-07-05T12:00:43.922Z,150
2017-07-05T12:01:53.970Z,235
2017-07-05T12:03:04.379Z,260
2017-07-05T12:04:14.430Z,260
2017-07-05T12:05:24.797Z,255
2017-07-05T12:06:35.153Z,260
2017-07-05T12:07:45.214Z,265
2017-07-05T12:08:55.662Z,140
2017-07-05T12:10:06.036Z,265
2017-07-05T12:11:16.084Z,270
2017-07-05T12:12:26.505Z,270
2017-07-05T12:13:36.879Z,270
2017-07-05T12:14:46.339Z,270
2017-07-05T12:15:56.370Z,270
2017-07-05T12:17:06.081Z,270
2017-07-05T12:18:16.460Z,265
2017-07-05T12:19:26.846Z,255
2017-07-05T12:20:37.014Z,250
2017-07-05T12:21:47.389Z,245
2017-07-05T12:22:57.733Z,135
2017-07-05T12:24:08.098Z,240
2017-07-05T12:25:18.155Z,240
2017-07-05T12:26:28.573Z,205
2017-07-05T12:27:38.615Z,175
2017-07-05T12:28:49.014Z,235
2017-07-05T12:29:59.378Z,240
2017-07-05T12:31:09.749Z,240
2017-07-05T12:32:20.106Z,240
2017-07-05T12:33:30.313Z,235
2017-07-05T12:34:40.368Z,235
2017-07-05T12:35:50.740Z,235
2017-07-05T12:37:00.791Z,235
2017-07-05T12:38:11.159Z,235
2017-07-05T12:39:21.241Z,240
2017-07-05T12:40:30.973Z,235
2017-07-05T12:41:41.021Z,115
2017-07-05T12:42:51.388Z,115
2017-07-05T12:44:01.761Z,230
2017-07-05T12:45:12.171Z,235
2017-07-05T12:46:22.238Z,235
2017-07-05T12:47:31.646Z,235
2017-07-05T12:48:42.032Z,235
2017-07-05T12:49:52.412Z,235
2017-07-05T12:51:02.839Z,235
2017-07-05T12:52:13.196Z,235
2017-07-05T12:53:23.264Z,235
2017-07-05T12:54:33.009Z,235
2017-07-05T12:55:43.379Z,235
2017-07-05T12:56:53.169Z,230
2017-07-05T12:58:03.214Z,230
2017-07-05T12:59:13.594Z,230
2017-07-05T13:00:23.659Z,235
2017-07-05T13:01:34.039Z,230
2017-07-05T13:02:44.171Z,235
2017-07-05T13:03:54.220Z,230
2017-07-05T13:05:04.605Z,235
2017-07-05T13:06:14.993Z,235
2017-07-05T13:07:24.725Z,230
2017-07-05T13:08:34.528Z,235
2017-07-05T13:09:44.251Z,235
2017-07-05T13:10:54.642Z,235
2017-07-05T13:12:04.701Z,240
2017-07-05T13:13:15.070Z,235
2017-07-05T13:14:25.492Z,235
2017-07-05T13:15:35.565Z,235
2017-07-05T13:16:45.934Z,230
2017-07-05T13:17:56.301Z,235
2017-07-05T13:19:06.683Z,235
2017-07-05T13:20:16.784Z,235
2017-07-05T13:21:26.519Z,235
2017-07-05T13:22:36.951Z,240
2017-07-05T13:23:46.673Z,240
2017-07-05T13:24:57.050Z,240
2017-07-05T13:26:07.469Z,235
2017-07-05T13:27:17.198Z,235
2017-07-05T13:28:27.561Z,235
2017-07-05T13:29:37.617Z,235
2017-07-05T13:30:47.714Z,235
2017-07-05T13:31:57.812Z,235
2017-07-05T13:33:07.857Z,230
2017-07-05T13:34:17.896Z,230
2017-07-05T13:35:27.983Z,235
2017-07-05T13:36:38.405Z,235
2017-07-05T13:37:48.836Z,235
2017-07-05T13:38:59.230Z,235
2017-07-05T13:40:09.284Z,235
2017-07-05T13:41:19.339Z,235
2017-07-05T13:42:29.719Z,235
2017-07-05T13:43:40.070Z,235
2017-07-05T13:44:50.427Z,235
2017-07-05T13:46:00.794Z,235
2017-07-05T13:47:10.838Z,235
2017-07-05T13:48:20.881Z,235
2017-07-05T13:49:31.365Z,235
2017-07-05T13:50:41.723Z,235
2017-07-05T13:51:51.777Z,235
2017-07-05T13:53:02.149Z,235
2017-07-05T13:54:12.514Z,235
2017-07-05T13:55:22.584Z,235
2017-07-05T13:56:32.950Z,235
2017-07-05T13:57:43.324Z,235
2017-07-05T13:58:53.689Z,235
2017-07-05T14:00:04.068Z,235
2017-07-05T14:01:14.502Z,230
2017-07-05T14:02:24.874Z,230
2017-07-05T14:03:35.256Z,230
2017-07-05T14:04:44.990Z,230
2017-07-05T14:05:55.439Z,230
2017-07-05T14:07:05.928Z,230
2017-07-05T14:08:16.299Z,225
2017-07-05T14:09:26.338Z,220
2017-07-05T14:10:36.080Z,215
2017-07-05T14:11:46.460Z,210
2017-07-05T14:12:56.524Z,205
2017-07-05T14:14:06.586Z,205
2017-07-05T14:15:16.956Z,205
2017-07-05T14:16:26.708Z,205
2017-07-05T14:17:36.760Z,205
2017-07-05T14:18:46.877Z,205
2017-07-05T14:19:57.255Z,205
2017-07-05T14:21:07.328Z,205
2017-07-05T14:22:17.683Z,195
2017-07-05T14:23:27.713Z,195
2017-07-05T14:24:37.819Z,195
2017-07-05T14:25:48.183Z,195
2017-07-05T14:26:58.545Z,200
2017-07-05T14:28:08.920Z,200
2017-07-05T14:29:18.647Z,200
2017-07-05T14:30:28.745Z,195
2017-07-05T14:31:38.781Z,195
2017-07-05T14:32:49.138Z,200
2017-07-05T14:33:59.514Z,195
2017-07-05T14:35:09.909Z,190
2017-07-05T14:36:20.287Z,190
2017-07-05T14:37:30.328Z,190
2017-07-05T14:38:40.708Z,190
2017-07-05T14:39:50.770Z,190
2017-07-05T14:41:01.152Z,190
2017-07-05T14:42:11.587Z,190
2017-07-05T14:43:21.978Z,190
2017-07-05T14:44:32.039Z,190
2017-07-05T14:45:41.750Z,185
2017-07-05T14:46:51.804Z,185
2017-07-05T14:48:02.171Z,185
2017-07-05T14:49:12.542Z,185
2017-07-05T14:50:22.610Z,185
2017-07-05T14:51:32.358Z,185
2017-07-05T14:52:42.748Z,180
2017-07-05T14:53:52.791Z,180
2017-07-05T14:55:02.823Z,180
2017-07-05T14:56:13.203Z,180
2017-07-05T14:57:23.239Z,180
2017-07-05T14:58:33.014Z,180
2017-07-05T14:59:43.374Z,180
2017-07-05T15:00:53.401Z,175
2017-07-05T15:02:03.780Z,175
2017-07-05T15:03:13.821Z,175
2017-07-05T15:04:23.917Z,175
2017-07-05T15:05:34.290Z,175
2017-07-05T15:06:44.406Z,175
2017-07-05T15:07:54.779Z,175
2017-07-05T15:09:05.147Z,175
2017-07-05T15:10:15.632Z,170
2017-07-05T15:11:25.679Z,170
2017-07-05T15:12:36.040Z,170
2017-07-05T15:13:46.112Z,170
2017-07-05T15:14:56.164Z,170
2017-07-05T15:16:06.268Z,170
2017-07-05T15:17:16.642Z,170
2017-07-05T15:18:26.712Z,170
2017-07-05T15:19:37.100Z,170
2017-07-05T15:20:47.228Z,170
2017-07-05T15:21:57.629Z,170
2017-07-05T15:23:07.670Z,165
2017-07-05T15:24:17.725Z,165
2017-07-05T15:25:28.139Z,165
2017-07-05T15:26:38.166Z,165
2017-07-05T15:27:48.536Z,165
2017-07-05T15:28:58.259Z,165
2017-07-05T15:30:08.725Z,165
2017-07-05T15:31:18.757Z,160
2017-07-05T15:32:29.118Z,160
2017-07-05T15:33:39.532Z,160
2017-07-05T15:34:49.904Z,160
2017-07-05T15:36:00.274Z,160
2017-07-05T15:37:10.323Z,160
2017-07-05T15:38:20.377Z,160
2017-07-05T15:39:30.406Z,160
2017-07-05T15:40:40.148Z,160
2017-07-05T15:41:50.221Z,155
2017-07-05T15:43:00.264Z,155
2017-07-05T15:44:10.611Z,155
2017-07-05T15:45:21.023Z,155
2017-07-05T15:46:31.070Z,155
2017-07-05T15:47:41.436Z,155
2017-07-05T15:48:51.184Z,155
2017-07-05T15:50:01.252Z,155
2017-07-05T15:51:11.344Z,150
2017-07-05T15:52:21.708Z,150
2017-07-05T15:53:32.073Z,150
2017-07-05T15:54:42.135Z,150
2017-07-05T15:55:52.539Z,150
2017-07-05T15:57:02.915Z,150
2017-07-05T15:58:13.270Z,150
2017-07-05T15:59:23.639Z,150
2017-07-05T16:00:34.021Z,150
2017-07-05T16:01:44.054Z,150
2017-07-05T16:02:54.160Z,150
2017-07-05T16:04:04.581Z,150
2017-07-05T16:05:14.977Z,150
2017-07-05T16:06:25.344Z,150
2017-07-05T16:07:35.058Z,150
2017-07-05T16:08:45.151Z,150
2017-07-05T16:09:55.524Z,150
2017-07-05T16:11:05.888Z,145
2017-07-05T16:12:16.249Z,145
2017-07-05T16:13:25.691Z,145
2017-07-05T16:14:35.725Z,145
2017-07-05T16:15:45.776Z,145
2017-07-05T16:16:56.151Z,145
2017-07-05T16:18:06.221Z,140
2017-07-05T16:19:16.635Z,140
2017-07-05T16:20:26.687Z,140
2017-07-05T16:21:37.053Z,140
2017-07-05T16:22:46.464Z,135
2017-07-05T16:23:56.824Z,135
2017-07-05T16:25:06.862Z,130
2017-07-05T16:26:17.281Z,130
2017-07-05T16:27:27.642Z,135
2017-07-05T16:28:37.690Z,140
2017-07-05T16:29:47.416Z,140
2017-07-05T16:30:57.487Z,140
2017-07-05T16:32:07.605Z,140
2017-07-05T16:33:17.658Z,140
2017-07-05T16:34:27.719Z,135
2017-07-05T16:35:38.077Z,140
2017-07-05T16:36:48.120Z,135
2017-07-05T16:37:58.245Z,140
2017-07-05T16:39:08.301Z,135
2017-07-05T16:40:18.681Z,135
2017-07-05T16:41:29.044Z,135
2017-07-05T16:42:39.418Z,135
2017-07-05T16:43:49.523Z,130
2017-07-05T16:44:59.918Z,125
2017-07-05T16:46:09.976Z,125
2017-07-05T16:47:20.328Z,125
2017-07-05T16:48:30.363Z,125
2017-07-05T16:49:40.775Z,125
2017-07-05T16:50:50.827Z,125
2017-07-05T16:52:00.879Z,125